createdAt,value
2022-11-23T00:00:14.295Z,978.34
2022-11-23T00:05:14.244Z,978.28
2022-11-23T00:10:14.188Z,978.32
2022-11-23T00:15:14.252Z,978.30
2022-11-23T00:20:14.078Z,978.28
2022-11-23T00:25:14.053Z,978.41
2022-11-23T05:00:26.374Z,979.40
2022-11-23T05:05:26.321Z,979.39
2022-11-23T05:10:26.238Z,979.44
2022-11-23T05:15:26.203Z,979.48
2022-11-23T05:20:26.151Z,979.42
2022-11-23T05:25:26.094Z,979.40
2022-11-23T05:30:26.039Z,979.54
2022-11-23T05:35:25.986Z,979.59
2022-11-23T05:40:26.100Z,979.64
2022-11-23T05:45:25.878Z,979.58
2022-11-23T05:50:25.826Z,979.63
2022-11-23T05:55:25.770Z,979.66
2022-11-23T06:00:25.741Z,979.63
2022-11-23T06:05:25.665Z,979.69
2022-11-23T06:10:25.619Z,979.67
2022-11-23T06:15:25.549Z,979.74
2022-11-23T06:20:25.639Z,979.69
2022-11-23T06:25:25.464Z,979.81
2022-11-23T06:30:25.382Z,979.65
2022-11-23T06:35:25.339Z,979.62
2022-11-23T06:40:25.307Z,979.71
2022-11-23T06:45:25.221Z,979.71
2022-11-23T06:50:25.179Z,979.74
2022-11-23T06:55:25.132Z,979.75
2022-11-23T07:00:25.092Z,979.77
2022-11-23T07:05:25.020Z,979.75
2022-11-23T07:10:24.965Z,979.82
2022-11-23T07:15:24.913Z,979.84
2022-11-23T07:20:24.892Z,979.81
2022-11-23T07:25:24.807Z,979.89
2022-11-23T07:30:29.193Z,979.94
2022-11-23T07:35:24.696Z,979.91
2022-11-23T07:40:24.663Z,979.99
2022-11-23T07:45:24.606Z,980.06
2022-11-23T07:50:24.527Z,980.12
2022-11-23T07:55:24.485Z,980.19
2022-11-23T08:00:24.580Z,980.22
2022-11-23T08:05:24.378Z,980.29
2022-11-23T08:10:24.339Z,980.42
2022-11-23T08:15:24.256Z,980.35
2022-11-23T08:20:24.318Z,980.43
2022-11-23T08:25:24.169Z,980.42
2022-11-23T08:30:24.164Z,980.37
2022-11-23T08:35:24.058Z,980.44
2022-11-23T08:40:25.855Z,980.43
2022-11-23T08:45:23.948Z,980.42
2022-11-23T08:50:24.024Z,980.47
2022-11-23T08:55:23.844Z,980.52
2022-11-23T09:00:23.809Z,980.59
2022-11-23T09:05:23.745Z,980.52
2022-11-23T09:10:23.754Z,980.54
2022-11-23T09:15:23.635Z,980.50
2022-11-23T09:20:23.600Z,980.53
2022-11-23T09:25:23.532Z,980.52
2022-11-23T09:30:23.478Z,980.57
2022-11-23T09:35:23.418Z,980.62
2022-11-23T09:40:23.386Z,980.68
2022-11-23T09:45:23.351Z,980.69
2022-11-23T09:50:23.259Z,980.70
2022-11-23T09:55:23.203Z,980.73
2022-11-23T10:00:23.187Z,980.73
2022-11-23T10:05:23.104Z,980.80
2022-11-23T10:10:23.040Z,980.68
2022-11-23T10:15:22.991Z,980.55
2022-11-23T10:20:23.020Z,980.53
2022-11-23T10:25:22.889Z,980.49
2022-11-23T10:30:22.829Z,980.45
2022-11-23T10:35:22.780Z,980.51
2022-11-23T10:40:22.748Z,980.46
2022-11-23T10:45:22.678Z,980.37
2022-11-23T10:50:22.645Z,980.29
2022-11-23T10:55:22.568Z,980.23
2022-11-23T11:00:27.217Z,980.14
2022-11-23T11:05:40.261Z,980.07
2022-11-23T11:10:23.404Z,980.00
2022-11-23T11:15:29.406Z,979.77
2022-11-23T11:20:22.297Z,979.73
2022-11-23T11:25:22.243Z,979.69
2022-11-23T11:30:22.193Z,979.57
2022-11-23T11:35:22.163Z,979.57
2022-11-23T11:40:22.089Z,979.55
2022-11-23T11:45:22.058Z,979.51
2022-11-23T11:50:23.917Z,979.55
2022-11-23T11:55:21.958Z,979.56
2022-11-23T12:00:21.909Z,979.59
2022-11-23T12:05:21.817Z,979.62
2022-11-23T12:10:21.765Z,979.62
2022-11-23T12:15:50.907Z,979.55
2022-11-23T12:20:22.660Z,979.57
2022-11-23T12:25:21.603Z,979.50
2022-11-23T12:30:21.556Z,979.42
2022-11-23T12:35:21.544Z,979.38
2022-11-23T12:40:21.449Z,979.41
2022-11-23T12:45:21.386Z,979.42
2022-11-23T12:50:21.340Z,979.40
2022-11-23T12:55:21.303Z,979.29
2022-11-23T13:00:21.239Z,979.25
2022-11-23T13:05:21.175Z,979.07
2022-11-23T13:10:21.121Z,978.93
2022-11-23T13:15:21.082Z,978.81
2022-11-23T13:20:21.023Z,978.82
2022-11-23T13:25:20.958Z,978.88
2022-11-23T13:30:20.904Z,978.77
2022-11-23T13:35:20.878Z,978.75
2022-11-23T13:40:20.808Z,978.84
2022-11-23T13:45:20.745Z,978.76
2022-11-23T13:50:20.703Z,978.69
2022-11-23T13:55:20.670Z,978.76
2022-11-23T14:00:20.586Z,978.71
2022-11-23T14:05:20.543Z,978.63
2022-11-23T14:10:20.483Z,978.55
2022-11-23T14:15:20.465Z,978.61
2022-11-23T14:20:20.371Z,978.51
2022-11-23T14:25:20.322Z,978.49
2022-11-23T14:30:20.265Z,978.56
2022-11-23T14:35:20.241Z,978.59
2022-11-23T14:40:20.165Z,978.60
2022-11-23T14:45:20.125Z,978.62
2022-11-23T14:50:20.056Z,978.65
2022-11-23T14:55:20.035Z,978.65
2022-11-23T15:00:19.953Z,978.71
2022-11-23T15:05:19.983Z,978.83
2022-11-23T15:10:19.856Z,979.01
2022-11-23T15:15:19.814Z,979.04
2022-11-23T15:20:19.745Z,979.15
2022-11-23T15:25:19.690Z,979.25
2022-11-23T15:30:19.720Z,979.25
2022-11-23T15:35:19.603Z,979.41
2022-11-23T15:40:19.524Z,979.47
2022-11-23T15:45:19.473Z,979.50
2022-11-23T15:50:19.418Z,979.76
2022-11-23T15:55:19.389Z,979.87
2022-11-23T16:00:19.316Z,979.97
2022-11-23T16:05:19.263Z,980.08
2022-11-23T16:10:19.211Z,980.22
2022-11-23T16:15:19.181Z,980.28
2022-11-23T16:20:19.100Z,980.41
2022-11-23T16:25:19.044Z,980.52
2022-11-23T16:30:19.032Z,980.60
2022-11-23T16:35:18.964Z,980.66
2022-11-23T16:40:18.888Z,980.70
2022-11-23T16:45:18.837Z,980.80
2022-11-23T16:50:18.781Z,980.89
2022-11-23T16:55:18.754Z,981.00
2022-11-23T17:00:18.693Z,980.99
2022-11-23T17:05:18.639Z,981.01
2022-11-23T17:10:18.627Z,981.15
2022-11-23T17:15:25.578Z,981.13
2022-11-23T17:20:18.489Z,981.01
2022-11-23T17:25:18.395Z,981.17
2022-11-23T17:30:18.358Z,981.39
2022-11-23T17:35:18.335Z,981.43
2022-11-23T17:40:18.231Z,981.56
2022-11-23T17:45:18.193Z,981.61
2022-11-23T17:50:18.191Z,981.64
2022-11-23T17:55:18.099Z,981.66
2022-11-23T18:00:18.056Z,981.74
2022-11-23T18:05:21.837Z,981.81
2022-11-23T18:10:18.142Z,981.85
2022-11-23T18:15:18.049Z,981.78
2022-11-23T18:20:18.054Z,981.83
2022-11-23T18:25:18.014Z,981.93
2022-11-23T18:30:17.722Z,982.02
2022-11-23T18:35:17.681Z,982.09
2022-11-23T18:40:17.608Z,982.13
2022-11-23T18:45:17.542Z,982.19
2022-11-23T18:50:17.501Z,982.15
2022-11-23T18:55:17.462Z,982.26
2022-11-23T19:00:17.373Z,982.42
2022-11-23T19:05:17.336Z,982.50
2022-11-23T19:10:17.288Z,982.51
2022-11-23T19:15:17.246Z,982.58
2022-11-23T19:20:17.174Z,982.75
2022-11-23T19:25:17.137Z,982.84
2022-11-23T19:30:17.051Z,982.78
2022-11-23T19:35:17.028Z,982.93
2022-11-23T19:40:17.078Z,982.91
2022-11-23T19:45:16.892Z,982.90
2022-11-23T19:50:16.851Z,982.99
2022-11-23T19:55:16.951Z,983.11
2022-11-23T20:00:16.728Z,983.14
2022-11-23T20:05:16.732Z,983.26
2022-11-23T20:10:16.642Z,983.22
2022-11-23T20:15:16.584Z,983.35
2022-11-23T20:20:16.525Z,983.44
2022-11-23T20:25:16.481Z,983.51
2022-11-23T20:30:16.408Z,983.61
2022-11-23T20:35:16.385Z,983.57
2022-11-23T20:40:16.323Z,983.58
2022-11-23T20:45:16.247Z,983.70
2022-11-23T20:50:16.206Z,983.74
2022-11-23T20:55:16.170Z,983.75
2022-11-23T21:00:16.087Z,983.84
2022-11-23T21:05:16.045Z,983.85
2022-11-23T21:10:15.995Z,983.84
2022-11-23T21:15:15.964Z,983.99
2022-11-23T21:20:15.886Z,984.08
2022-11-23T21:25:15.839Z,984.01
2022-11-23T21:30:15.778Z,984.08
2022-11-23T21:35:15.749Z,984.16
2022-11-23T21:40:15.671Z,984.22
2022-11-23T21:45:15.621Z,984.32
2022-11-23T21:50:15.567Z,984.40
2022-11-23T21:55:15.565Z,984.39
2022-11-23T22:00:15.461Z,984.40
2022-11-23T22:05:15.404Z,984.52
2022-11-23T22:10:15.353Z,984.61
2022-11-23T22:15:15.316Z,984.65
2022-11-23T22:20:15.258Z,984.77
2022-11-23T22:25:15.180Z,984.85
2022-11-23T22:30:15.140Z,984.80
2022-11-23T22:35:15.121Z,984.92
2022-11-23T22:40:15.020Z,984.97
2022-11-23T22:45:14.979Z,985.07
2022-11-23T22:50:14.937Z,985.03
2022-11-23T22:55:14.876Z,985.15
2022-11-23T23:00:14.824Z,985.23
2022-11-23T23:05:14.768Z,985.28
2022-11-23T23:10:14.713Z,985.39
2022-11-23T23:15:21.718Z,985.41
2022-11-23T23:20:14.604Z,985.42
2022-11-23T23:25:14.549Z,985.46
2022-11-23T23:30:14.528Z,985.57
2022-11-23T23:35:14.497Z,985.62
2022-11-23T23:40:14.396Z,985.63
2022-11-23T23:45:14.342Z,985.71
2022-11-23T23:50:14.296Z,985.77
2022-11-23T23:55:14.259Z,985.79
